sensor_id;sensor_type;location;lat;lon;timestamp;P1;durP1;ratioP1;P2;durP2;ratioP2
64832;SDS011;51290;45.060;38.948;2023-06-01T00:01:56;5.88;;;4.57;;
64832;SDS011;51290;45.060;38.948;2023-06-01T00:04:22;5.90;;;4.97;;
64832;SDS011;51290;45.060;38.948;2023-06-01T00:06:48;13.57;;;4.97;;
64832;SDS011;51290;45.060;38.948;2023-06-01T00:09:14;6.30;;;4.22;;
64832;SDS011;51290;45.060;38.948;2023-06-01T00:11:39;7.72;;;4.63;;
64832;SDS011;51290;45.060;38.948;2023-06-01T00:14:05;10.05;;;5.32;;
64832;SDS011;51290;45.060;38.948;2023-06-01T00:16:32;7.35;;;4.78;;
64832;SDS011;51290;45.060;38.948;2023-06-01T00:18:58;7.95;;;5.05;;
64832;SDS011;51290;45.060;38.948;2023-06-01T00:21:26;8.32;;;4.53;;
64832;SDS011;51290;45.060;38.948;2023-06-01T00:23:56;12.65;;;4.88;;
64832;SDS011;51290;45.060;38.948;2023-06-01T00:26:23;7.22;;;5.03;;
64832;SDS011;51290;45.060;38.948;2023-06-01T00:28:51;7.40;;;4.18;;
64832;SDS011;51290;45.060;38.948;2023-06-01T00:31:18;11.05;;;4.50;;
64832;SDS011;51290;45.060;38.948;2023-06-01T00:33:44;6.00;;;4.28;;
64832;SDS011;51290;45.060;38.948;2023-06-01T00:36:10;5.40;;;4.13;;
64832;SDS011;51290;45.060;38.948;2023-06-01T00:38:36;6.47;;;4.55;;
64832;SDS011;51290;45.060;38.948;2023-06-01T00:41:01;8.55;;;4.78;;
64832;SDS011;51290;45.060;38.948;2023-06-01T00:43:27;10.40;;;5.07;;
64832;SDS011;51290;45.060;38.948;2023-06-01T00:45:53;6.45;;;4.63;;
64832;SDS011;51290;45.060;38.948;2023-06-01T00:48:19;7.28;;;5.00;;
64832;SDS011;51290;45.060;38.948;2023-06-01T00:50:46;7.95;;;4.70;;
64832;SDS011;51290;45.060;38.948;2023-06-01T00:53:15;13.32;;;5.18;;
64832;SDS011;51290;45.060;38.948;2023-06-01T00:55:43;6.55;;;4.43;;
64832;SDS011;51290;45.060;38.948;2023-06-01T00:58:11;14.10;;;5.10;;
64832;SDS011;51290;45.060;38.948;2023-06-01T01:00:38;6.40;;;4.40;;
64832;SDS011;51290;45.060;38.948;2023-06-01T01:03:05;5.90;;;4.22;;
64832;SDS011;51290;45.060;38.948;2023-06-01T01:05:35;7.75;;;5.60;;
64832;SDS011;51290;45.060;38.948;2023-06-01T01:10:59;8.63;;;4.95;;
64832;SDS011;51290;45.060;38.948;2023-06-01T01:13:41;6.32;;;4.35;;
64832;SDS011;51290;45.060;38.948;2023-06-01T01:21:57;7.80;;;4.53;;
64832;SDS011;51290;45.060;38.948;2023-06-01T01:30:42;8.10;;;4.93;;
64832;SDS011;51290;45.060;38.948;2023-06-01T01:33:13;7.72;;;4.82;;
64832;SDS011;51290;45.060;38.948;2023-06-01T01:35:39;5.18;;;3.80;;
64832;SDS011;51290;45.060;38.948;2023-06-01T01:38:07;7.43;;;5.03;;
64832;SDS011;51290;45.060;38.948;2023-06-01T01:40:33;6.75;;;4.50;;
64832;SDS011;51290;45.060;38.948;2023-06-01T01:42:59;9.30;;;5.65;;
64832;SDS011;51290;45.060;38.948;2023-06-01T01:45:28;8.05;;;4.72;;
64832;SDS011;51290;45.060;38.948;2023-06-01T01:50:37;9.02;;;5.15;;
64832;SDS011;51290;45.060;38.948;2023-06-01T01:53:07;6.68;;;4.90;;
64832;SDS011;51290;45.060;38.948;2023-06-01T01:55:35;6.50;;;4.47;;
64832;SDS011;51290;45.060;38.948;2023-06-01T01:58:02;5.90;;;4.45;;
64832;SDS011;51290;45.060;38.948;2023-06-01T02:00:30;8.15;;;5.32;;
64832;SDS011;51290;45.060;38.948;2023-06-01T02:02:57;7.25;;;4.80;;
64832;SDS011;51290;45.060;38.948;2023-06-01T02:05:24;10.85;;;4.80;;
64832;SDS011;51290;45.060;38.948;2023-06-01T02:07:50;7.30;;;4.40;;
64832;SDS011;51290;45.060;38.948;2023-06-01T02:10:16;7.75;;;5.13;;
64832;SDS011;51290;45.060;38.948;2023-06-01T02:12:42;7.10;;;4.28;;
64832;SDS011;51290;45.060;38.948;2023-06-01T02:15:08;6.32;;;4.63;;
64832;SDS011;51290;45.060;38.948;2023-06-01T02:17:37;9.15;;;4.32;;
64832;SDS011;51290;45.060;38.948;2023-06-01T02:20:04;12.48;;;5.47;;
64832;SDS011;51290;45.060;38.948;2023-06-01T02:22:31;7.07;;;3.83;;
64832;SDS011;51290;45.060;38.948;2023-06-01T02:24:57;6.63;;;4.63;;
64832;SDS011;51290;45.060;38.948;2023-06-01T02:27:30;6.25;;;4.63;;
64832;SDS011;51290;45.060;38.948;2023-06-01T02:29:56;8.50;;;4.70;;
64832;SDS011;51290;45.060;38.948;2023-06-01T02:32:22;4.70;;;3.75;;
64832;SDS011;51290;45.060;38.948;2023-06-01T02:34:49;6.38;;;4.75;;
64832;SDS011;51290;45.060;38.948;2023-06-01T02:37:16;6.97;;;3.95;;
64832;SDS011;51290;45.060;38.948;2023-06-01T02:39:42;7.60;;;4.82;;
64832;SDS011;51290;45.060;38.948;2023-06-01T02:42:09;9.65;;;4.90;;
64832;SDS011;51290;45.060;38.948;2023-06-01T02:44:35;6.70;;;5.30;;
64832;SDS011;51290;45.060;38.948;2023-06-01T02:47:01;6.65;;;4.75;;
64832;SDS011;51290;45.060;38.948;2023-06-01T02:49:28;5.97;;;4.50;;
64832;SDS011;51290;45.060;38.948;2023-06-01T02:51:55;6.43;;;4.22;;
64832;SDS011;51290;45.060;38.948;2023-06-01T02:54:23;7.63;;;4.43;;
64832;SDS011;51290;45.060;38.948;2023-06-01T02:56:51;5.10;;;3.90;;
64832;SDS011;51290;45.060;38.948;2023-06-01T02:59:34;4.25;;;3.65;;
64832;SDS011;51290;45.060;38.948;2023-06-01T03:02:02;8.18;;;4.45;;
64832;SDS011;51290;45.060;38.948;2023-06-01T03:04:32;5.63;;;4.28;;
64832;SDS011;51290;45.060;38.948;2023-06-01T03:07:00;10.82;;;5.38;;
64832;SDS011;51290;45.060;38.948;2023-06-01T03:09:35;6.35;;;4.22;;
64832;SDS011;51290;45.060;38.948;2023-06-01T03:12:14;11.30;;;4.45;;
64832;SDS011;51290;45.060;38.948;2023-06-01T03:14:40;6.47;;;4.30;;
64832;SDS011;51290;45.060;38.948;2023-06-01T03:17:07;11.60;;;4.85;;
64832;SDS011;51290;45.060;38.948;2023-06-01T03:19:34;8.68;;;5.30;;
64832;SDS011;51290;45.060;38.948;2023-06-01T03:22:07;13.23;;;4.45;;
64832;SDS011;51290;45.060;38.948;2023-06-01T03:24:33;5.53;;;4.05;;
64832;SDS011;51290;45.060;38.948;2023-06-01T03:27:02;6.35;;;4.45;;
64832;SDS011;51290;45.060;38.948;2023-06-01T03:29:31;6.00;;;4.07;;
64832;SDS011;51290;45.060;38.948;2023-06-01T03:31:57;7.82;;;4.65;;
64832;SDS011;51290;45.060;38.948;2023-06-01T03:34:25;7.30;;;4.70;;
64832;SDS011;51290;45.060;38.948;2023-06-01T03:36:52;7.50;;;5.07;;
64832;SDS011;51290;45.060;38.948;2023-06-01T03:39:19;8.63;;;4.15;;
64832;SDS011;51290;45.060;38.948;2023-06-01T03:41:45;6.93;;;4.70;;
64832;SDS011;51290;45.060;38.948;2023-06-01T03:44:11;6.15;;;4.65;;
64832;SDS011;51290;45.060;38.948;2023-06-01T03:46:38;6.50;;;4.38;;
64832;SDS011;51290;45.060;38.948;2023-06-01T03:49:05;9.63;;;5.28;;
64832;SDS011;51290;45.060;38.948;2023-06-01T03:51:31;8.48;;;5.05;;
64832;SDS011;51290;45.060;38.948;2023-06-01T03:53:58;7.28;;;4.70;;
64832;SDS011;51290;45.060;38.948;2023-06-01T03:56:24;5.85;;;4.63;;
64832;SDS011;51290;45.060;38.948;2023-06-01T03:58:57;5.25;;;3.90;;
64832;SDS011;51290;45.060;38.948;2023-06-01T04:01:23;7.20;;;4.85;;
64832;SDS011;51290;45.060;38.948;2023-06-01T04:03:49;9.70;;;4.57;;
64832;SDS011;51290;45.060;38.948;2023-06-01T04:06:15;11.55;;;5.07;;
64832;SDS011;51290;45.060;38.948;2023-06-01T04:08:45;7.05;;;5.10;;
64832;SDS011;51290;45.060;38.948;2023-06-01T04:11:16;6.30;;;4.22;;
64832;SDS011;51290;45.060;38.948;2023-06-01T04:13:43;7.80;;;5.00;;
64832;SDS011;51290;45.060;38.948;2023-06-01T04:16:10;7.82;;;4.97;;
64832;SDS011;51290;45.060;38.948;2023-06-01T04:18:38;4.55;;;3.72;;
64832;SDS011;51290;45.060;38.948;2023-06-01T04:21:04;9.57;;;4.95;;
64832;SDS011;51290;45.060;38.948;2023-06-01T04:23:32;8.57;;;4.72;;
64832;SDS011;51290;45.060;38.948;2023-06-01T04:25:59;8.63;;;5.20;;
64832;SDS011;51290;45.060;38.948;2023-06-01T04:28:27;5.70;;;4.57;;
64832;SDS011;51290;45.060;38.948;2023-06-01T04:30:53;5.55;;;4.35;;
64832;SDS011;51290;45.060;38.948;2023-06-01T04:33:21;7.22;;;4.93;;
64832;SDS011;51290;45.060;38.948;2023-06-01T04:35:48;7.85;;;4.60;;
64832;SDS011;51290;45.060;38.948;2023-06-01T04:38:16;11.45;;;5.00;;
64832;SDS011;51290;45.060;38.948;2023-06-01T04:40:44;6.50;;;4.68;;
64832;SDS011;51290;45.060;38.948;2023-06-01T04:43:13;9.20;;;4.82;;
64832;SDS011;51290;45.060;38.948;2023-06-01T04:45:45;11.43;;;5.13;;
64832;SDS011;51290;45.060;38.948;2023-06-01T04:48:12;12.93;;;5.95;;
64832;SDS011;51290;45.060;38.948;2023-06-01T04:50:59;7.63;;;4.80;;
64832;SDS011;51290;45.060;38.948;2023-06-01T04:53:25;8.63;;;4.38;;
64832;SDS011;51290;45.060;38.948;2023-06-01T04:55:55;9.93;;;5.43;;
64832;SDS011;51290;45.060;38.948;2023-06-01T04:58:22;10.38;;;6.18;;
64832;SDS011;51290;45.060;38.948;2023-06-01T05:00:47;9.15;;;4.72;;
64832;SDS011;51290;45.060;38.948;2023-06-01T05:03:14;5.53;;;4.50;;
64832;SDS011;51290;45.060;38.948;2023-06-01T05:05:41;8.38;;;5.20;;
64832;SDS011;51290;45.060;38.948;2023-06-01T05:08:07;7.13;;;4.50;;
64832;SDS011;51290;45.060;38.948;2023-06-01T05:10:33;8.23;;;5.35;;
64832;SDS011;51290;45.060;38.948;2023-06-01T05:12:59;6.13;;;4.47;;
64832;SDS011;51290;45.060;38.948;2023-06-01T05:15:25;7.45;;;5.05;;
64832;SDS011;51290;45.060;38.948;2023-06-01T05:17:56;6.90;;;4.85;;
64832;SDS011;51290;45.060;38.948;2023-06-01T05:20:22;15.38;;;5.00;;
64832;SDS011;51290;45.060;38.948;2023-06-01T05:22:56;12.23;;;4.83;;
64832;SDS011;51290;45.060;38.948;2023-06-01T05:25:22;8.75;;;4.53;;
64832;SDS011;51290;45.060;38.948;2023-06-01T05:27:49;6.20;;;4.28;;
64832;SDS011;51290;45.060;38.948;2023-06-01T05:30:15;10.90;;;4.70;;
64832;SDS011;51290;45.060;38.948;2023-06-01T05:32:51;8.80;;;4.70;;
64832;SDS011;51290;45.060;38.948;2023-06-01T05:35:18;8.68;;;4.95;;
64832;SDS011;51290;45.060;38.948;2023-06-01T05:37:47;13.05;;;4.45;;
64832;SDS011;51290;45.060;38.948;2023-06-01T05:40:13;12.50;;;4.85;;
64832;SDS011;51290;45.060;38.948;2023-06-01T05:42:39;8.88;;;5.18;;
64832;SDS011;51290;45.060;38.948;2023-06-01T05:45:06;7.22;;;4.60;;
64832;SDS011;51290;45.060;38.948;2023-06-01T05:47:32;6.38;;;4.60;;
64832;SDS011;51290;45.060;38.948;2023-06-01T05:49:58;7.35;;;4.68;;
64832;SDS011;51290;45.060;38.948;2023-06-01T05:52:34;8.45;;;4.18;;
64832;SDS011;51290;45.060;38.948;2023-06-01T05:55:02;5.25;;;3.80;;
64832;SDS011;51290;45.060;38.948;2023-06-01T05:57:29;6.55;;;4.22;;
64832;SDS011;51290;45.060;38.948;2023-06-01T05:59:55;7.38;;;4.00;;
64832;SDS011;51290;45.060;38.948;2023-06-01T06:02:21;7.53;;;4.05;;
64832;SDS011;51290;45.060;38.948;2023-06-01T06:04:47;16.83;;;5.25;;
64832;SDS011;51290;45.060;38.948;2023-06-01T06:07:13;8.90;;;4.57;;
64832;SDS011;51290;45.060;38.948;2023-06-01T06:09:39;6.97;;;3.97;;
64832;SDS011;51290;45.060;38.948;2023-06-01T06:12:06;7.95;;;5.47;;
64832;SDS011;51290;45.060;38.948;2023-06-01T06:14:32;8.88;;;4.32;;
64832;SDS011;51290;45.060;38.948;2023-06-01T06:16:59;6.10;;;4.40;;
64832;SDS011;51290;45.060;38.948;2023-06-01T06:19:25;6.28;;;4.22;;
64832;SDS011;51290;45.060;38.948;2023-06-01T06:22:02;9.07;;;5.15;;
64832;SDS011;51290;45.060;38.948;2023-06-01T06:24:28;9.98;;;4.60;;
64832;SDS011;51290;45.060;38.948;2023-06-01T06:26:54;5.57;;;4.25;;
64832;SDS011;51290;45.060;38.948;2023-06-01T06:29:20;9.93;;;4.88;;
64832;SDS011;51290;45.060;38.948;2023-06-01T06:31:46;4.97;;;3.80;;
64832;SDS011;51290;45.060;38.948;2023-06-01T06:34:12;6.82;;;4.50;;
64832;SDS011;51290;45.060;38.948;2023-06-01T06:36:38;9.63;;;4.65;;
64832;SDS011;51290;45.060;38.948;2023-06-01T06:39:04;6.82;;;4.68;;
64832;SDS011;51290;45.060;38.948;2023-06-01T06:41:30;9.98;;;5.43;;
64832;SDS011;51290;45.060;38.948;2023-06-01T06:43:56;8.98;;;5.20;;
64832;SDS011;51290;45.060;38.948;2023-06-01T06:46:22;8.38;;;4.13;;
64832;SDS011;51290;45.060;38.948;2023-06-01T06:48:48;7.55;;;4.82;;
64832;SDS011;51290;45.060;38.948;2023-06-01T06:51:14;8.35;;;5.20;;
64832;SDS011;51290;45.060;38.948;2023-06-01T06:53:40;6.70;;;4.40;;
64832;SDS011;51290;45.060;38.948;2023-06-01T06:56:06;7.75;;;5.07;;
64832;SDS011;51290;45.060;38.948;2023-06-01T06:58:33;7.38;;;5.40;;
64832;SDS011;51290;45.060;38.948;2023-06-01T07:00:59;7.78;;;5.15;;
64832;SDS011;51290;45.060;38.948;2023-06-01T07:03:30;8.13;;;4.80;;
64832;SDS011;51290;45.060;38.948;2023-06-01T07:05:58;7.03;;;4.57;;
64832;SDS011;51290;45.060;38.948;2023-06-01T07:08:23;6.93;;;4.70;;
64832;SDS011;51290;45.060;38.948;2023-06-01T07:11:05;7.60;;;4.53;;
64832;SDS011;51290;45.060;38.948;2023-06-01T07:13:31;9.02;;;5.22;;
64832;SDS011;51290;45.060;38.948;2023-06-01T07:15:57;9.65;;;4.38;;
64832;SDS011;51290;45.060;38.948;2023-06-01T07:18:23;9.13;;;4.95;;
64832;SDS011;51290;45.060;38.948;2023-06-01T07:20:49;15.88;;;6.20;;
64832;SDS011;51290;45.060;38.948;2023-06-01T07:23:15;6.88;;;4.05;;
64832;SDS011;51290;45.060;38.948;2023-06-01T07:25:41;8.65;;;4.47;;
64832;SDS011;51290;45.060;38.948;2023-06-01T07:28:07;7.47;;;4.45;;
64832;SDS011;51290;45.060;38.948;2023-06-01T07:30:37;8.82;;;5.05;;
64832;SDS011;51290;45.060;38.948;2023-06-01T07:33:03;7.78;;;4.60;;
64832;SDS011;51290;45.060;38.948;2023-06-01T07:37:58;8.60;;;4.90;;
64832;SDS011;51290;45.060;38.948;2023-06-01T07:40:51;14.60;;;5.57;;
64832;SDS011;51290;45.060;38.948;2023-06-01T07:43:17;6.95;;;5.13;;
64832;SDS011;51290;45.060;38.948;2023-06-01T07:45:43;5.88;;;4.53;;
64832;SDS011;51290;45.060;38.948;2023-06-01T07:48:09;7.65;;;5.03;;
64832;SDS011;51290;45.060;38.948;2023-06-01T07:50:35;11.77;;;4.88;;
64832;SDS011;51290;45.060;38.948;2023-06-01T07:53:01;15.60;;;6.03;;
64832;SDS011;51290;45.060;38.948;2023-06-01T07:55:28;8.23;;;5.18;;
64832;SDS011;51290;45.060;38.948;2023-06-01T07:57:54;7.72;;;5.28;;
64832;SDS011;51290;45.060;38.948;2023-06-01T08:00:20;11.95;;;6.10;;
64832;SDS011;51290;45.060;38.948;2023-06-01T08:02:47;7.65;;;5.63;;
64832;SDS011;51290;45.060;38.948;2023-06-01T08:05:46;13.32;;;5.32;;
64832;SDS011;51290;45.060;38.948;2023-06-01T08:08:11;8.60;;;4.72;;
64832;SDS011;51290;45.060;38.948;2023-06-01T08:10:38;7.45;;;4.28;;
64832;SDS011;51290;45.060;38.948;2023-06-01T08:13:04;5.57;;;4.05;;
64832;SDS011;51290;45.060;38.948;2023-06-01T08:15:32;6.93;;;4.03;;
64832;SDS011;51290;45.060;38.948;2023-06-01T08:18:02;5.95;;;4.07;;
64832;SDS011;51290;45.060;38.948;2023-06-01T08:20:28;7.07;;;4.82;;
64832;SDS011;51290;45.060;38.948;2023-06-01T08:22:59;8.60;;;5.35;;
64832;SDS011;51290;45.060;38.948;2023-06-01T08:25:25;6.32;;;4.25;;
64832;SDS011;51290;45.060;38.948;2023-06-01T08:27:52;7.15;;;5.15;;
64832;SDS011;51290;45.060;38.948;2023-06-01T08:30:19;6.70;;;4.57;;
64832;SDS011;51290;45.060;38.948;2023-06-01T08:32:45;17.80;;;5.95;;
64832;SDS011;51290;45.060;38.948;2023-06-01T08:35:11;28.55;;;5.75;;
64832;SDS011;51290;45.060;38.948;2023-06-01T08:37:37;8.05;;;4.78;;
64832;SDS011;51290;45.060;38.948;2023-06-01T08:40:03;8.48;;;4.72;;
64832;SDS011;51290;45.060;38.948;2023-06-01T08:45:22;7.53;;;3.85;;
64832;SDS011;51290;45.060;38.948;2023-06-01T08:47:49;6.93;;;4.25;;
64832;SDS011;51290;45.060;38.948;2023-06-01T08:50:18;7.18;;;4.43;;
64832;SDS011;51290;45.060;38.948;2023-06-01T08:52:44;6.63;;;3.65;;
64832;SDS011;51290;45.060;38.948;2023-06-01T08:55:12;5.40;;;3.58;;
64832;SDS011;51290;45.060;38.948;2023-06-01T08:57:42;5.50;;;3.10;;
64832;SDS011;51290;45.060;38.948;2023-06-01T09:00:08;4.80;;;3.75;;
64832;SDS011;51290;45.060;38.948;2023-06-01T09:02:37;5.32;;;3.67;;
64832;SDS011;51290;45.060;38.948;2023-06-01T09:05:03;8.63;;;4.60;;
64832;SDS011;51290;45.060;38.948;2023-06-01T09:07:30;6.47;;;3.90;;
64832;SDS011;51290;45.060;38.948;2023-06-01T09:09:59;10.05;;;4.18;;
64832;SDS011;51290;45.060;38.948;2023-06-01T09:12:27;7.95;;;3.88;;
64832;SDS011;51290;45.060;38.948;2023-06-01T09:17:32;5.25;;;3.58;;
64832;SDS011;51290;45.060;38.948;2023-06-01T09:19:58;5.50;;;3.35;;
64832;SDS011;51290;45.060;38.948;2023-06-01T09:22:24;5.90;;;3.80;;
64832;SDS011;51290;45.060;38.948;2023-06-01T09:24:59;10.82;;;3.95;;
64832;SDS011;51290;45.060;38.948;2023-06-01T09:27:26;5.95;;;3.67;;
64832;SDS011;51290;45.060;38.948;2023-06-01T09:29:58;7.45;;;3.78;;
64832;SDS011;51290;45.060;38.948;2023-06-01T09:32:27;9.45;;;4.22;;
64832;SDS011;51290;45.060;38.948;2023-06-01T09:34:53;6.82;;;3.10;;
64832;SDS011;51290;45.060;38.948;2023-06-01T09:37:20;9.57;;;4.05;;
64832;SDS011;51290;45.060;38.948;2023-06-01T09:39:46;8.57;;;4.20;;
64832;SDS011;51290;45.060;38.948;2023-06-01T09:42:12;5.30;;;3.30;;
64832;SDS011;51290;45.060;38.948;2023-06-01T09:44:39;5.78;;;3.60;;
64832;SDS011;51290;45.060;38.948;2023-06-01T09:47:07;10.45;;;3.47;;
64832;SDS011;51290;45.060;38.948;2023-06-01T09:49:36;5.22;;;3.42;;
64832;SDS011;51290;45.060;38.948;2023-06-01T09:52:13;5.38;;;3.40;;
64832;SDS011;51290;45.060;38.948;2023-06-01T09:54:41;4.13;;;3.30;;
64832;SDS011;51290;45.060;38.948;2023-06-01T09:57:10;5.53;;;3.42;;
64832;SDS011;51290;45.060;38.948;2023-06-01T09:59:44;11.25;;;3.55;;
64832;SDS011;51290;45.060;38.948;2023-06-01T10:02:15;4.47;;;3.22;;
64832;SDS011;51290;45.060;38.948;2023-06-01T10:04:49;7.38;;;3.53;;
64832;SDS011;51290;45.060;38.948;2023-06-01T10:07:18;4.60;;;3.28;;
64832;SDS011;51290;45.060;38.948;2023-06-01T10:09:45;6.43;;;3.42;;
64832;SDS011;51290;45.060;38.948;2023-06-01T10:12:16;7.85;;;4.07;;
64832;SDS011;51290;45.060;38.948;2023-06-01T10:14:42;5.07;;;3.08;;
64832;SDS011;51290;45.060;38.948;2023-06-01T10:17:08;3.70;;;2.92;;
64832;SDS011;51290;45.060;38.948;2023-06-01T10:19:37;5.97;;;2.95;;
64832;SDS011;51290;45.060;38.948;2023-06-01T10:22:04;4.35;;;3.28;;
64832;SDS011;51290;45.060;38.948;2023-06-01T10:24:31;6.50;;;3.30;;
64832;SDS011;51290;45.060;38.948;2023-06-01T10:27:03;5.05;;;3.10;;
64832;SDS011;51290;45.060;38.948;2023-06-01T10:29:49;6.15;;;3.47;;
64832;SDS011;51290;45.060;38.948;2023-06-01T10:35:07;4.78;;;3.13;;
64832;SDS011;51290;45.060;38.948;2023-06-01T10:37:35;5.57;;;3.42;;
64832;SDS011;51290;45.060;38.948;2023-06-01T10:42:40;4.57;;;3.15;;
64832;SDS011;51290;45.060;38.948;2023-06-01T10:45:06;5.82;;;3.30;;
64832;SDS011;51290;45.060;38.948;2023-06-01T10:52:28;5.53;;;3.60;;
64832;SDS011;51290;45.060;38.948;2023-06-01T10:57:35;5.50;;;3.50;;
64832;SDS011;51290;45.060;38.948;2023-06-01T11:00:12;4.85;;;3.30;;
64832;SDS011;51290;45.060;38.948;2023-06-01T11:07:59;5.80;;;3.55;;
64832;SDS011;51290;45.060;38.948;2023-06-01T11:13:16;6.68;;;3.33;;
64832;SDS011;51290;45.060;38.948;2023-06-01T11:18:56;4.10;;;3.05;;
64832;SDS011;51290;45.060;38.948;2023-06-01T11:21:25;5.20;;;3.15;;
64832;SDS011;51290;45.060;38.948;2023-06-01T11:23:53;7.72;;;3.53;;
64832;SDS011;51290;45.060;38.948;2023-06-01T11:26:22;4.38;;;3.00;;
64832;SDS011;51290;45.060;38.948;2023-06-01T11:28:51;6.78;;;3.47;;
64832;SDS011;51290;45.060;38.948;2023-06-01T11:31:18;8.93;;;3.22;;
64832;SDS011;51290;45.060;38.948;2023-06-01T11:33:48;4.40;;;3.35;;
64832;SDS011;51290;45.060;38.948;2023-06-01T11:36:23;10.45;;;3.33;;
64832;SDS011;51290;45.060;38.948;2023-06-01T11:38:50;4.50;;;2.72;;
64832;SDS011;51290;45.060;38.948;2023-06-01T11:41:18;3.17;;;2.88;;
64832;SDS011;51290;45.060;38.948;2023-06-01T11:43:58;5.70;;;3.45;;
64832;SDS011;51290;45.060;38.948;2023-06-01T11:46:24;5.78;;;3.17;;
64832;SDS011;51290;45.060;38.948;2023-06-01T11:49:02;7.32;;;3.40;;
64832;SDS011;51290;45.060;38.948;2023-06-01T11:51:33;10.32;;;4.13;;
64832;SDS011;51290;45.060;38.948;2023-06-01T11:54:02;3.88;;;3.20;;
64832;SDS011;51290;45.060;38.948;2023-06-01T11:56:33;6.55;;;3.80;;
64832;SDS011;51290;45.060;38.948;2023-06-01T11:59:02;8.65;;;3.17;;
64832;SDS011;51290;45.060;38.948;2023-06-01T12:01:55;5.88;;;3.67;;
64832;SDS011;51290;45.060;38.948;2023-06-01T12:04:24;4.80;;;3.40;;
64832;SDS011;51290;45.060;38.948;2023-06-01T12:06:51;4.68;;;3.10;;
64832;SDS011;51290;45.060;38.948;2023-06-01T12:09:28;7.43;;;3.65;;
64832;SDS011;51290;45.060;38.948;2023-06-01T12:11:55;6.55;;;3.28;;
64832;SDS011;51290;45.060;38.948;2023-06-01T12:14:21;8.95;;;3.22;;
64832;SDS011;51290;45.060;38.948;2023-06-01T12:16:53;8.25;;;3.70;;
64832;SDS011;51290;45.060;38.948;2023-06-01T12:19:24;10.27;;;4.55;;
64832;SDS011;51290;45.060;38.948;2023-06-01T12:21:54;4.93;;;3.15;;
64832;SDS011;51290;45.060;38.948;2023-06-01T12:24:32;10.13;;;3.53;;
64832;SDS011;51290;45.060;38.948;2023-06-01T12:26:59;17.73;;;4.45;;
64832;SDS011;51290;45.060;38.948;2023-06-01T12:32:19;13.43;;;3.55;;
64832;SDS011;51290;45.060;38.948;2023-06-01T12:35:02;7.93;;;3.58;;
64832;SDS011;51290;45.060;38.948;2023-06-01T12:37:29;10.63;;;3.28;;
64832;SDS011;51290;45.060;38.948;2023-06-01T12:39:55;8.13;;;3.67;;
64832;SDS011;51290;45.060;38.948;2023-06-01T12:42:38;6.57;;;3.47;;
64832;SDS011;51290;45.060;38.948;2023-06-01T12:48:01;2.78;;;2.45;;
64832;SDS011;51290;45.060;38.948;2023-06-01T12:50:27;7.50;;;3.22;;
64832;SDS011;51290;45.060;38.948;2023-06-01T12:52:53;4.03;;;3.08;;
64832;SDS011;51290;45.060;38.948;2023-06-01T12:55:22;3.90;;;2.75;;
64832;SDS011;51290;45.060;38.948;2023-06-01T12:57:55;4.38;;;2.97;;
64832;SDS011;51290;45.060;38.948;2023-06-01T13:00:21;7.78;;;3.17;;
64832;SDS011;51290;45.060;38.948;2023-06-01T13:02:47;23.77;;;3.85;;
64832;SDS011;51290;45.060;38.948;2023-06-01T13:05:16;6.85;;;3.60;;
64832;SDS011;51290;45.060;38.948;2023-06-01T13:07:45;5.20;;;2.78;;
64832;SDS011;51290;45.060;38.948;2023-06-01T13:10:11;11.50;;;3.95;;
64832;SDS011;51290;45.060;38.948;2023-06-01T13:12:57;6.15;;;3.28;;
64832;SDS011;51290;45.060;38.948;2023-06-01T13:15:23;4.07;;;2.63;;
64832;SDS011;51290;45.060;38.948;2023-06-01T13:17:49;5.90;;;3.50;;
64832;SDS011;51290;45.060;38.948;2023-06-01T13:20:15;4.40;;;3.53;;
64832;SDS011;51290;45.060;38.948;2023-06-01T13:22:42;6.65;;;3.85;;
64832;SDS011;51290;45.060;38.948;2023-06-01T13:25:08;14.05;;;2.88;;
64832;SDS011;51290;45.060;38.948;2023-06-01T13:27:34;4.57;;;2.97;;
64832;SDS011;51290;45.060;38.948;2023-06-01T13:32:35;15.02;;;3.45;;
64832;SDS011;51290;45.060;38.948;2023-06-01T13:35:01;5.32;;;3.33;;
64832;SDS011;51290;45.060;38.948;2023-06-01T13:37:27;9.25;;;3.50;;
64832;SDS011;51290;45.060;38.948;2023-06-01T13:39:53;6.32;;;3.63;;
64832;SDS011;51290;45.060;38.948;2023-06-01T13:42:19;6.85;;;3.58;;
64832;SDS011;51290;45.060;38.948;2023-06-01T13:44:45;6.25;;;3.20;;
64832;SDS011;51290;45.060;38.948;2023-06-01T13:47:15;3.88;;;2.90;;
64832;SDS011;51290;45.060;38.948;2023-06-01T13:49:41;4.70;;;2.78;;
64832;SDS011;51290;45.060;38.948;2023-06-01T13:52:08;3.33;;;2.15;;
64832;SDS011;51290;45.060;38.948;2023-06-01T13:54:35;3.05;;;2.45;;
64832;SDS011;51290;45.060;38.948;2023-06-01T13:57:01;3.40;;;2.47;;
64832;SDS011;51290;45.060;38.948;2023-06-01T13:59:31;3.03;;;2.42;;
64832;SDS011;51290;45.060;38.948;2023-06-01T14:01:59;4.47;;;2.90;;
64832;SDS011;51290;45.060;38.948;2023-06-01T14:04:25;3.08;;;2.28;;
64832;SDS011;51290;45.060;38.948;2023-06-01T14:06:51;10.40;;;4.22;;
64832;SDS011;51290;45.060;38.948;2023-06-01T14:09:17;10.35;;;4.07;;
64832;SDS011;51290;45.060;38.948;2023-06-01T14:11:44;7.15;;;3.55;;
64832;SDS011;51290;45.060;38.948;2023-06-01T14:14:10;4.35;;;2.80;;
64832;SDS011;51290;45.060;38.948;2023-06-01T14:16:36;9.95;;;3.50;;
64832;SDS011;51290;45.060;38.948;2023-06-01T14:19:02;6.00;;;3.42;;
64832;SDS011;51290;45.060;38.948;2023-06-01T14:21:29;5.80;;;3.50;;
64832;SDS011;51290;45.060;38.948;2023-06-01T14:23:56;4.25;;;2.90;;
64832;SDS011;51290;45.060;38.948;2023-06-01T14:26:22;3.45;;;2.92;;
64832;SDS011;51290;45.060;38.948;2023-06-01T14:28:49;7.28;;;3.47;;
64832;SDS011;51290;45.060;38.948;2023-06-01T14:31:18;3.55;;;3.03;;
64832;SDS011;51290;45.060;38.948;2023-06-01T14:33:47;6.10;;;3.50;;
64832;SDS011;51290;45.060;38.948;2023-06-01T14:36:13;4.03;;;3.03;;
64832;SDS011;51290;45.060;38.948;2023-06-01T14:38:40;8.32;;;3.83;;
64832;SDS011;51290;45.060;38.948;2023-06-01T14:41:06;10.27;;;4.00;;
64832;SDS011;51290;45.060;38.948;2023-06-01T14:43:38;7.40;;;3.95;;
64832;SDS011;51290;45.060;38.948;2023-06-01T14:46:04;6.78;;;3.97;;
64832;SDS011;51290;45.060;38.948;2023-06-01T14:48:35;10.50;;;4.13;;
64832;SDS011;51290;45.060;38.948;2023-06-01T14:51:01;7.72;;;3.72;;
64832;SDS011;51290;45.060;38.948;2023-06-01T14:53:29;5.47;;;3.15;;
64832;SDS011;51290;45.060;38.948;2023-06-01T14:55:55;7.38;;;3.97;;
64832;SDS011;51290;45.060;38.948;2023-06-01T14:58:21;4.32;;;3.10;;
64832;SDS011;51290;45.060;38.948;2023-06-01T15:00:47;5.57;;;3.17;;
64832;SDS011;51290;45.060;38.948;2023-06-01T15:03:13;4.75;;;3.33;;
64832;SDS011;51290;45.060;38.948;2023-06-01T15:05:39;3.42;;;2.85;;
64832;SDS011;51290;45.060;38.948;2023-06-01T15:08:05;3.40;;;2.78;;
64832;SDS011;51290;45.060;38.948;2023-06-01T15:10:32;7.18;;;3.60;;
64832;SDS011;51290;45.060;38.948;2023-06-01T15:12:58;4.35;;;3.33;;
64832;SDS011;51290;45.060;38.948;2023-06-01T15:15:25;11.45;;;4.15;;
64832;SDS011;51290;45.060;38.948;2023-06-01T15:17:52;7.88;;;3.33;;
64832;SDS011;51290;45.060;38.948;2023-06-01T15:20:18;7.00;;;3.40;;
64832;SDS011;51290;45.060;38.948;2023-06-01T15:22:53;4.63;;;3.10;;
64832;SDS011;51290;45.060;38.948;2023-06-01T15:27:55;4.95;;;3.60;;
64832;SDS011;51290;45.060;38.948;2023-06-01T15:30:21;8.35;;;3.40;;
64832;SDS011;51290;45.060;38.948;2023-06-01T15:32:48;6.03;;;3.63;;
64832;SDS011;51290;45.060;38.948;2023-06-01T15:35:14;5.80;;;3.85;;
64832;SDS011;51290;45.060;38.948;2023-06-01T15:37:40;9.68;;;3.53;;
64832;SDS011;51290;45.060;38.948;2023-06-01T15:40:11;6.72;;;3.75;;